createdAt,value
2023-04-06T00:01:01.727Z,99304.00
2023-04-06T00:03:28.308Z,99306.84
2023-04-06T00:05:54.877Z,99311.50
2023-04-06T00:08:21.426Z,99313.03
2023-04-06T00:10:48.149Z,99307.91
2023-04-06T00:13:14.671Z,99308.72
2023-04-06T00:15:43.229Z,99311.13
2023-04-06T00:18:09.962Z,99307.66
2023-04-06T00:20:36.616Z,99311.22
2023-04-06T00:23:03.114Z,99310.41
2023-04-06T00:25:29.612Z,99312.50
2023-04-06T00:27:56.128Z,99327.34
2023-04-06T00:30:23.020Z,99336.72
2023-04-06T00:32:49.642Z,99345.63
2023-04-06T00:35:16.207Z,99347.34
2023-04-06T00:37:42.762Z,99345.78
2023-04-06T00:40:10.166Z,99352.19
2023-04-06T00:42:37.400Z,99352.19
2023-04-06T00:45:04.188Z,99341.78
2023-04-06T00:47:30.761Z,99335.72
2023-04-06T00:49:57.354Z,99346.00
2023-04-06T00:52:23.846Z,99335.50
2023-04-06T00:54:51.168Z,99331.09
2023-04-06T00:57:18.469Z,99331.81
2023-04-06T00:59:45.379Z,99324.41
2023-04-06T01:02:12.162Z,99325.53
2023-04-06T01:04:38.623Z,99320.38
2023-04-06T01:07:05.023Z,99323.78
2023-04-06T01:09:32.096Z,99333.66
2023-04-06T01:11:59.806Z,99331.28
2023-04-06T01:14:26.797Z,99345.34
2023-04-06T01:16:53.680Z,99349.16
2023-04-06T01:19:20.349Z,99360.69
2023-04-06T01:21:46.841Z,99357.53
2023-04-06T01:24:13.572Z,99361.94
2023-04-06T01:26:40.179Z,99356.59
2023-04-06T01:29:07.000Z,99361.94
2023-04-06T01:31:33.629Z,99363.72
2023-04-06T01:34:00.663Z,99364.75
2023-04-06T01:36:27.622Z,99363.50
2023-04-06T01:38:54.151Z,99363.50
2023-04-06T01:41:20.639Z,99360.06
2023-04-06T01:43:49.380Z,99365.75
2023-04-06T01:46:16.250Z,99365.53
2023-04-06T01:48:43.328Z,99379.16
2023-04-06T01:51:10.820Z,99392.25
2023-04-06T01:53:37.275Z,99393.00
2023-04-06T01:56:04.004Z,99390.59
2023-04-06T01:58:30.679Z,99381.06
2023-04-06T02:00:57.473Z,99387.97
2023-04-06T02:03:24.020Z,99384.63
2023-04-06T02:05:50.431Z,99382.94
2023-04-06T02:08:16.865Z,99380.34
2023-04-06T02:10:43.292Z,99376.88
2023-04-06T02:13:09.765Z,99379.59
2023-04-06T02:15:36.313Z,99371.22
2023-04-06T02:18:02.747Z,99378.00
2023-04-06T02:20:29.309Z,99377.19
2023-04-06T02:22:57.986Z,99365.22
2023-04-06T02:25:24.445Z,99373.22
2023-04-06T02:27:50.851Z,99376.34
2023-04-06T02:30:17.630Z,99357.78
2023-04-06T02:32:44.120Z,99366.19
2023-04-06T02:35:10.848Z,99361.16
2023-04-06T02:37:37.281Z,99361.47
2023-04-06T02:40:04.591Z,99367.25
2023-04-06T02:42:31.326Z,99378.03
2023-04-06T02:44:57.781Z,99378.34
2023-04-06T02:47:24.218Z,99387.88
2023-04-06T02:49:51.012Z,99386.50
2023-04-06T02:52:17.396Z,99397.63
2023-04-06T02:54:44.275Z,99398.97
2023-04-06T02:57:11.134Z,99403.72
2023-04-06T02:59:37.894Z,99403.38
2023-04-06T03:02:04.673Z,99411.56
2023-04-06T03:04:31.373Z,99416.88
2023-04-06T03:07:00.771Z,99416.47
2023-04-06T03:09:27.918Z,99417.31
2023-04-06T03:11:54.425Z,99415.63
2023-04-06T03:14:21.074Z,99410.69
2023-04-06T03:16:47.637Z,99411.34
2023-04-06T03:19:14.343Z,99417.06
2023-04-06T03:21:41.139Z,99429.13
2023-04-06T03:24:08.269Z,99423.16
2023-04-06T03:26:34.964Z,99420.72
2023-04-06T03:29:01.676Z,99426.91
2023-04-06T03:31:28.303Z,99423.47
2023-04-06T03:33:54.841Z,99424.19
2023-04-06T03:36:21.325Z,99442.63
2023-04-06T03:38:48.564Z,99438.41
2023-04-06T03:41:14.944Z,99433.81
2023-04-06T03:43:41.429Z,99437.38
2023-04-06T03:46:07.930Z,99440.84
2023-04-06T03:48:34.455Z,99442.63
2023-04-06T03:51:00.895Z,99449.63
2023-04-06T03:53:27.534Z,99441.88
2023-04-06T03:55:54.297Z,99443.78
2023-04-06T03:58:21.082Z,99440.50
2023-04-06T04:00:47.538Z,99445.53
2023-04-06T04:03:14.394Z,99440.69
2023-04-06T04:05:41.381Z,99441.00
2023-04-06T04:08:07.854Z,99441.94
2023-04-06T04:10:34.586Z,99448.09
2023-04-06T04:13:01.156Z,99447.19
2023-04-06T04:15:27.678Z,99450.63
2023-04-06T04:17:54.500Z,99452.31
2023-04-06T04:20:20.936Z,99449.69
2023-04-06T04:22:47.409Z,99457.84
2023-04-06T04:25:14.352Z,99454.28
2023-04-06T04:27:41.093Z,99462.69
2023-04-06T04:30:08.161Z,99472.22
2023-04-06T04:32:34.656Z,99474.06
2023-04-06T04:35:01.563Z,99464.75
2023-04-06T04:37:27.989Z,99476.81
2023-04-06T04:39:54.473Z,99492.59
2023-04-06T04:42:20.923Z,99487.16
2023-04-06T04:44:47.444Z,99496.59
2023-04-06T04:47:14.133Z,99485.28
2023-04-06T04:49:40.640Z,99483.81
2023-04-06T04:52:07.144Z,99487.34
2023-04-06T04:54:33.576Z,99485.38
2023-04-06T04:57:00.079Z,99480.66
2023-04-06T04:59:26.634Z,99489.25
2023-04-06T05:01:55.654Z,99500.25
2023-04-06T05:04:23.197Z,99493.34
2023-04-06T05:06:49.706Z,99496.78
2023-04-06T05:09:17.473Z,99495.97
2023-04-06T05:11:44.059Z,99492.19
2023-04-06T05:14:10.858Z,99498.47
2023-04-06T05:16:37.356Z,99504.81
2023-04-06T05:19:03.888Z,99502.31
2023-04-06T05:21:30.705Z,99496.47
2023-04-06T05:23:57.387Z,99478.25
2023-04-06T05:26:23.890Z,99471.13
2023-04-06T05:28:50.558Z,99475.31
2023-04-06T05:31:17.326Z,99461.75
2023-04-06T05:33:44.393Z,99463.75
2023-04-06T05:36:11.631Z,99462.59
2023-04-06T05:38:39.565Z,99451.06
2023-04-06T05:41:06.144Z,99448.03
2023-04-06T05:43:33.080Z,99438.38
2023-04-06T05:45:59.590Z,99432.19
2023-04-06T05:48:26.105Z,99429.78
2023-04-06T05:50:52.685Z,99433.88
2023-04-06T05:53:19.081Z,99434.09
2023-04-06T05:55:45.618Z,99434.41
2023-04-06T05:58:12.327Z,99434.94
2023-04-06T06:00:38.846Z,99434.28
2023-04-06T06:03:05.480Z,99435.03
2023-04-06T06:05:32.254Z,99436.59
2023-04-06T06:07:58.914Z,99418.19
2023-04-06T06:10:25.393Z,99408.16
2023-04-06T06:12:53.609Z,99390.03
2023-04-06T06:15:20.380Z,99373.84
2023-04-06T06:17:46.924Z,99360.31
2023-04-06T06:20:13.754Z,99340.06
2023-04-06T06:22:41.637Z,99338.91
2023-04-06T06:25:08.755Z,99315.88
2023-04-06T06:27:35.740Z,99288.41
2023-04-06T06:30:07.130Z,99262.88
2023-04-06T06:32:33.635Z,99254.63
2023-04-06T06:35:00.085Z,99251.75
2023-04-06T06:37:30.644Z,99250.44
2023-04-06T06:39:58.023Z,99250.50
2023-04-06T06:42:24.470Z,99234.16
2023-04-06T06:44:51.657Z,99204.69
2023-04-06T06:47:18.506Z,99198.25
2023-04-06T06:49:45.152Z,99190.06
2023-04-06T06:52:34.392Z,99187.63
2023-04-06T06:55:01.120Z,99175.91
2023-04-06T06:57:30.787Z,99159.16
2023-04-06T07:00:00.617Z,99147.94
2023-04-06T07:02:27.171Z,99135.44
2023-04-06T07:04:53.761Z,99133.16
2023-04-06T07:07:20.747Z,99122.78
2023-04-06T07:09:47.775Z,99124.63
2023-04-06T07:12:14.451Z,99113.09
2023-04-06T07:14:41.426Z,99104.75
2023-04-06T07:17:08.007Z,99103.34
2023-04-06T07:19:34.534Z,99097.22
2023-04-06T07:22:01.302Z,99097.78
2023-04-06T07:24:29.886Z,99092.91
2023-04-06T07:26:56.356Z,99095.66
2023-04-06T07:29:22.678Z,99083.78
2023-04-06T07:31:50.772Z,99100.69
2023-04-06T07:34:17.262Z,99093.63
2023-04-06T07:36:43.953Z,99088.38
2023-04-06T07:39:10.454Z,99076.09
2023-04-06T07:41:37.159Z,99065.59
2023-04-06T07:44:04.724Z,99062.75
2023-04-06T07:46:31.837Z,99067.97
2023-04-06T07:49:00.661Z,99060.09
2023-04-06T07:51:27.524Z,99053.81
2023-04-06T07:53:53.909Z,99053.47
2023-04-06T07:56:20.558Z,99054.00
2023-04-06T07:58:47.582Z,99050.81
2023-04-06T08:01:14.409Z,99064.22
2023-04-06T08:03:41.170Z,99050.00
2023-04-06T08:06:07.815Z,99046.88
2023-04-06T08:08:34.305Z,99046.88
2023-04-06T08:11:02.400Z,99044.09
2023-04-06T08:13:29.600Z,99045.75
2023-04-06T08:15:57.371Z,99043.09
2023-04-06T08:18:24.057Z,99046.09
2023-04-06T08:20:50.630Z,99044.44
2023-04-06T08:23:17.170Z,99049.75
2023-04-06T08:25:44.597Z,99049.56
2023-04-06T08:28:11.717Z,99052.34
2023-04-06T08:30:41.272Z,99046.41
2023-04-06T08:33:08.126Z,99052.03
2023-04-06T08:35:35.009Z,99043.00
2023-04-06T08:38:01.536Z,99039.69
2023-04-06T08:40:28.581Z,99051.81
2023-04-06T08:43:02.592Z,99042.75
2023-04-06T08:45:29.246Z,99044.38
2023-04-06T08:47:59.217Z,99043.56
2023-04-06T08:50:26.080Z,99044.69
2023-04-06T08:52:52.520Z,99037.78
2023-04-06T08:55:19.275Z,99036.75
2023-04-06T08:57:47.559Z,99039.84
2023-04-06T09:00:15.611Z,99038.34
2023-04-06T09:02:45.013Z,99025.38
2023-04-06T09:05:11.996Z,99032.13
2023-04-06T09:07:39.370Z,99020.63
2023-04-06T09:10:07.133Z,99029.06
2023-04-06T09:12:34.735Z,99023.59
2023-04-06T09:15:01.882Z,99023.31
2023-04-06T09:17:30.971Z,99019.16
2023-04-06T09:19:58.643Z,99021.78
2023-04-06T09:22:27.018Z,99024.75
2023-04-06T09:24:54.564Z,99021.78
2023-04-06T09:27:35.389Z,99017.97
2023-04-06T09:30:09.867Z,99017.31
2023-04-06T09:32:57.040Z,99020.16
2023-04-06T09:35:25.386Z,99014.41
2023-04-06T09:37:54.136Z,99015.16
2023-04-06T09:40:21.016Z,99012.34
2023-04-06T09:42:48.427Z,99008.47
2023-04-06T09:45:17.043Z,99010.91
2023-04-06T09:47:45.084Z,99003.56
2023-04-06T09:50:14.145Z,99002.16
2023-04-06T09:52:50.295Z,99008.88
2023-04-06T09:55:47.164Z,99003.34
2023-04-06T09:58:24.362Z,99007.72
2023-04-06T10:01:09.838Z,99002.72
2023-04-06T10:03:50.241Z,99002.00
2023-04-06T10:06:20.467Z,99004.72
2023-04-06T10:08:49.623Z,99000.19
2023-04-06T10:11:16.826Z,98998.63
2023-04-06T10:13:43.312Z,99000.34
2023-04-06T10:16:10.475Z,99002.94
2023-04-06T10:18:41.128Z,98999.78
2023-04-06T10:21:12.241Z,98992.44
2023-04-06T10:23:49.361Z,99000.97
2023-04-06T10:26:17.655Z,98990.56
2023-04-06T10:28:46.502Z,98998.91
2023-04-06T10:31:13.452Z,98997.47
2023-04-06T10:33:40.459Z,98991.06
2023-04-06T10:36:11.640Z,98999.13
2023-04-06T10:38:41.940Z,98996.78
2023-04-06T10:41:13.040Z,98992.06
2023-04-06T10:43:42.063Z,98991.72
2023-04-06T10:46:10.432Z,98995.22
2023-04-06T10:48:42.663Z,98983.25
2023-04-06T10:51:11.834Z,98985.53
2023-04-06T10:53:38.503Z,98986.78
2023-04-06T10:56:11.715Z,98981.81
2023-04-06T10:58:39.041Z,98978.94
2023-04-06T11:01:05.861Z,98976.47
2023-04-06T11:03:32.374Z,98979.72
2023-04-06T11:05:58.867Z,98971.53
2023-04-06T11:08:33.930Z,98975.19
2023-04-06T11:11:12.410Z,98977.69
2023-04-06T11:13:42.782Z,98975.22
2023-04-06T11:16:17.069Z,98974.59
2023-04-06T11:18:52.806Z,98970.13
2023-04-06T11:21:20.033Z,98967.06
2023-04-06T11:23:47.306Z,98968.91
2023-04-06T11:26:14.885Z,98956.19
2023-04-06T11:28:44.261Z,98956.72
2023-04-06T11:31:11.809Z,98962.31
2023-04-06T11:33:39.759Z,98955.19
2023-04-06T11:36:07.030Z,98963.78
2023-04-06T11:38:33.986Z,98954.00
2023-04-06T11:41:05.731Z,98953.41
2023-04-06T11:43:32.849Z,98948.22
2023-04-06T11:46:04.069Z,98942.06
2023-04-06T11:48:31.464Z,98942.91
2023-04-06T11:50:59.626Z,98936.81
2023-04-06T11:53:26.691Z,98934.22
2023-04-06T11:55:56.484Z,98930.75
2023-04-06T11:58:23.455Z,98924.25
2023-04-06T12:00:50.464Z,98923.28
2023-04-06T12:03:18.115Z,98922.03
2023-04-06T12:05:45.560Z,98920.97
2023-04-06T12:08:12.203Z,98918.56
2023-04-06T12:10:38.664Z,98907.97
2023-04-06T12:13:05.663Z,98913.69
2023-04-06T12:15:32.167Z,98910.50
2023-04-06T12:17:59.029Z,98907.34
2023-04-06T12:20:27.171Z,98909.47
2023-04-06T12:22:54.034Z,98903.81
2023-04-06T12:25:20.585Z,98903.88
2023-04-06T12:27:47.031Z,98898.41
2023-04-06T12:30:14.028Z,98899.56
2023-04-06T12:32:40.945Z,98898.94
2023-04-06T12:35:07.994Z,98899.53
2023-04-06T12:37:34.336Z,98905.94
2023-04-06T12:40:00.770Z,98902.66
2023-04-06T12:42:27.279Z,98903.13
2023-04-06T12:44:54.097Z,98901.97
2023-04-06T12:47:20.973Z,98897.59
2023-04-06T12:49:47.451Z,98898.88
2023-04-06T12:52:13.863Z,98895.53
2023-04-06T12:54:40.267Z,98892.50
2023-04-06T12:57:06.749Z,98888.69
2023-04-06T12:59:33.272Z,98887.91
2023-04-06T13:02:07.090Z,98878.78
2023-04-06T13:04:33.923Z,98881.16
2023-04-06T13:07:00.287Z,98880.75
2023-04-06T13:09:26.943Z,98886.00
2023-04-06T13:11:53.478Z,98886.50
2023-04-06T13:14:19.927Z,98874.03
2023-04-06T13:16:46.491Z,98877.88
2023-04-06T13:19:13.332Z,98879.34
2023-04-06T13:21:40.358Z,98867.91
2023-04-06T13:24:06.891Z,98870.16
2023-04-06T13:26:33.377Z,98863.84
2023-04-06T13:29:01.013Z,98865.34
2023-04-06T13:31:27.586Z,98864.00
2023-04-06T13:33:54.368Z,98863.31
2023-04-06T13:36:21.001Z,98855.63
2023-04-06T13:38:47.769Z,98855.25
2023-04-06T13:41:21.729Z,98853.69
2023-04-06T13:43:48.157Z,98852.09
2023-04-06T13:46:14.672Z,98847.25
2023-04-06T13:48:42.369Z,98845.19
2023-04-06T13:51:10.888Z,98844.53
2023-04-06T13:53:38.758Z,98841.69
2023-04-06T13:56:08.359Z,98842.34
2023-04-06T13:58:35.139Z,98843.63
2023-04-06T14:01:08.983Z,98850.13
2023-04-06T14:03:36.159Z,98843.41
2023-04-06T14:08:42.414Z,98840.25
2023-04-06T14:11:13.616Z,98838.44
2023-04-06T14:13:40.797Z,98839.31
2023-04-06T14:16:07.765Z,98835.38
2023-04-06T14:18:34.531Z,98830.63
2023-04-06T14:21:01.358Z,98832.41
2023-04-06T14:23:30.778Z,98836.63
2023-04-06T14:26:05.137Z,98828.38
2023-04-06T14:28:32.720Z,98824.66
2023-04-06T14:31:00.542Z,98825.34
2023-04-06T14:33:28.069Z,98829.00
2023-04-06T14:35:54.553Z,98830.94
2023-04-06T14:38:21.158Z,98832.19
2023-04-06T14:40:47.596Z,98824.84
2023-04-06T14:43:14.158Z,98824.59
2023-04-06T14:45:40.653Z,98820.72
2023-04-06T14:48:07.689Z,98821.03
2023-04-06T14:50:34.261Z,98815.97
2023-04-06T14:53:00.742Z,98824.69
2023-04-06T14:55:27.233Z,98815.22
2023-04-06T14:57:53.585Z,98817.94
2023-04-06T15:00:20.400Z,98816.56
2023-04-06T15:02:47.286Z,98814.25
2023-04-06T15:05:13.902Z,98820.88
2023-04-06T15:07:40.393Z,98808.44
2023-04-06T15:10:10.113Z,98810.69
2023-04-06T15:12:37.528Z,98816.69
2023-04-06T15:15:05.821Z,98807.59
2023-04-06T15:17:32.322Z,98808.81
2023-04-06T15:19:59.075Z,98804.69
2023-04-06T15:22:25.523Z,98803.38
2023-04-06T15:24:54.004Z,98806.19
2023-04-06T15:27:20.517Z,98807.63
2023-04-06T15:29:47.009Z,98802.50
2023-04-06T15:32:13.592Z,98800.56
2023-04-06T15:34:40.234Z,98804.63
2023-04-06T15:37:06.566Z,98799.44
2023-04-06T15:39:33.581Z,98810.03
2023-04-06T15:42:00.287Z,98802.16
2023-04-06T15:44:26.877Z,98796.31
2023-04-06T15:46:53.419Z,98791.25
2023-04-06T15:49:20.700Z,98801.31
2023-04-06T15:51:51.413Z,98801.75
2023-04-06T15:54:17.732Z,98797.13
2023-04-06T15:56:44.258Z,98797.78
2023-04-06T15:59:10.648Z,98797.69
2023-04-06T16:01:37.343Z,98791.34
2023-04-06T16:04:07.406Z,98800.72
2023-04-06T16:06:33.996Z,98779.94
2023-04-06T16:09:00.497Z,98790.09
2023-04-06T16:11:26.931Z,98795.28
2023-04-06T16:13:55.354Z,98792.47
2023-04-06T16:16:22.157Z,98788.34
2023-04-06T16:18:48.776Z,98787.13
2023-04-06T16:21:16.543Z,98782.97
2023-04-06T16:23:43.040Z,98787.50
2023-04-06T16:26:17.386Z,98787.97
2023-04-06T16:28:44.813Z,98789.41
2023-04-06T16:31:21.905Z,98792.09
2023-04-06T16:33:50.125Z,98787.53
2023-04-06T16:36:24.291Z,98791.66
2023-04-06T16:38:51.074Z,98789.63
2023-04-06T16:41:17.600Z,98787.81
2023-04-06T16:43:44.032Z,98788.84
2023-04-06T16:46:10.638Z,98790.13
2023-04-06T16:48:37.117Z,98790.75
2023-04-06T16:51:10.179Z,98787.25
2023-04-06T16:53:37.937Z,98790.97
2023-04-06T16:58:39.538Z,98774.53
2023-04-06T17:01:06.190Z,98781.56
2023-04-06T17:03:34.148Z,98782.34
2023-04-06T17:06:00.848Z,98782.75
2023-04-06T17:08:27.288Z,98781.97
2023-04-06T17:13:25.205Z,98781.13
2023-04-06T17:15:51.693Z,98781.97
2023-04-06T17:18:18.183Z,98785.88
2023-04-06T17:20:44.559Z,98776.81
2023-04-06T17:23:10.904Z,98785.44
2023-04-06T17:25:37.391Z,98794.72
2023-04-06T17:28:04.863Z,98787.53
2023-04-06T17:30:31.389Z,98800.44
2023-04-06T17:32:57.913Z,98794.06
2023-04-06T17:35:24.792Z,98794.06
2023-04-06T17:37:51.480Z,98793.00
2023-04-06T17:40:18.018Z,98790.94
2023-04-06T17:42:44.599Z,98794.59
2023-04-06T17:45:11.534Z,98794.41
2023-04-06T17:47:37.944Z,98792.31
2023-04-06T17:50:05.036Z,98806.09
2023-04-06T17:52:32.447Z,98801.53
2023-04-06T17:54:58.938Z,98799.09
2023-04-06T17:57:25.478Z,98807.91
2023-04-06T17:59:52.163Z,98806.03
2023-04-06T18:02:18.624Z,98813.81
2023-04-06T18:04:45.287Z,98818.28
2023-04-06T18:07:12.040Z,98823.00
2023-04-06T18:09:39.689Z,98825.47
2023-04-06T18:12:06.512Z,98831.00
2023-04-06T18:14:33.065Z,98835.91
2023-04-06T18:16:59.630Z,98832.59
2023-04-06T18:19:26.357Z,98837.88
2023-04-06T18:21:52.849Z,98833.34
2023-04-06T18:24:37.306Z,98846.09
2023-04-06T18:27:05.728Z,98839.88
2023-04-06T18:29:32.213Z,98840.22
2023-04-06T18:31:58.603Z,98845.75
2023-04-06T18:34:25.023Z,98852.53
2023-04-06T18:36:51.602Z,98850.47
2023-04-06T18:39:18.112Z,98845.75
2023-04-06T18:41:44.582Z,98855.22
2023-04-06T18:44:11.127Z,98867.31
2023-04-06T18:46:37.937Z,98860.28
2023-04-06T18:49:05.375Z,98857.78
2023-04-06T18:51:32.268Z,98864.41
2023-04-06T18:54:00.908Z,98871.34
2023-04-06T18:56:27.255Z,98870.94
2023-04-06T18:58:53.884Z,98871.72
2023-04-06T19:01:28.094Z,98875.81
2023-04-06T19:03:56.238Z,98881.97
2023-04-06T19:06:23.907Z,98873.91
2023-04-06T19:08:50.870Z,98877.41
2023-04-06T19:11:17.500Z,98878.66
2023-04-06T19:13:44.036Z,98877.00
2023-04-06T19:16:10.944Z,98877.97
2023-04-06T19:18:38.561Z,98875.28
2023-04-06T19:21:05.182Z,98880.78
2023-04-06T19:23:31.644Z,98882.75
2023-04-06T19:25:58.209Z,98875.78
2023-04-06T19:28:24.707Z,98888.63
2023-04-06T19:30:51.426Z,98886.75
2023-04-06T19:33:18.947Z,98895.16
2023-04-06T19:35:45.559Z,98892.66
2023-04-06T19:38:12.338Z,98898.19
2023-04-06T19:40:38.777Z,98891.38
2023-04-06T19:43:05.588Z,98893.22
2023-04-06T19:45:31.971Z,98888.72
2023-04-06T19:47:58.826Z,98897.53
2023-04-06T19:50:25.371Z,98879.41
2023-04-06T19:52:52.150Z,98888.19
2023-04-06T19:55:19.167Z,98890.41
2023-04-06T19:57:45.677Z,98885.44
2023-04-06T20:00:12.522Z,98884.56
2023-04-06T20:02:38.957Z,98898.47
2023-04-06T20:05:06.007Z,98894.31
2023-04-06T20:07:32.428Z,98884.03
2023-04-06T20:09:58.840Z,98895.41
2023-04-06T20:12:25.765Z,98893.34
2023-04-06T20:14:52.268Z,98897.81
2023-04-06T20:17:18.760Z,98897.28
2023-04-06T20:19:45.358Z,98896.25
2023-04-06T20:22:11.850Z,98899.78
2023-04-06T20:24:38.538Z,98893.34
2023-04-06T20:27:04.991Z,98894.28
2023-04-06T20:29:31.610Z,98889.84
2023-04-06T20:31:59.279Z,98893.44
2023-04-06T20:34:26.058Z,98895.03
2023-04-06T20:36:52.500Z,98892.28
2023-04-06T20:39:19.558Z,98891.81
2023-04-06T20:41:46.011Z,98893.03
2023-04-06T20:44:12.508Z,98886.06
2023-04-06T20:46:39.312Z,98892.03
2023-04-06T20:49:06.035Z,98886.13
2023-04-06T20:51:32.925Z,98890.69
2023-04-06T20:53:59.476Z,98893.94
2023-04-06T20:56:25.915Z,98895.31
2023-04-06T20:58:52.378Z,98902.03
2023-04-06T21:01:19.014Z,98901.16
2023-04-06T21:03:45.456Z,98894.50
2023-04-06T21:06:12.120Z,98889.75
2023-04-06T21:08:39.192Z,98893.63
2023-04-06T21:11:06.041Z,98893.16
2023-04-06T21:13:32.717Z,98893.16
2023-04-06T21:15:59.143Z,98893.75
2023-04-06T21:18:26.094Z,98890.13
2023-04-06T21:20:52.760Z,98890.50
2023-04-06T21:23:19.310Z,98886.72
2023-04-06T21:25:45.787Z,98889.75
2023-04-06T21:28:12.380Z,98880.94
2023-04-06T21:30:38.883Z,98885.22
2023-04-06T21:33:06.484Z,98886.84
2023-04-06T21:35:33.516Z,98884.72
2023-04-06T21:37:59.981Z,98885.75
2023-04-06T21:40:26.678Z,98883.28
2023-04-06T21:42:53.133Z,98893.28
2023-04-06T21:45:19.550Z,98897.59
2023-04-06T21:47:46.165Z,98896.25
2023-04-06T21:50:12.612Z,98903.47
2023-04-06T21:52:39.215Z,98909.72
2023-04-06T21:55:06.290Z,98914.13
2023-04-06T21:57:32.900Z,98942.16
2023-04-06T21:59:59.566Z,98932.13
2023-04-06T22:02:26.299Z,98942.16
2023-04-06T22:04:52.834Z,98954.16
2023-04-06T22:07:20.146Z,98963.31
2023-04-06T22:09:46.977Z,98970.97
2023-04-06T22:12:13.314Z,99016.03
2023-04-06T22:14:39.845Z,99020.06
2023-04-06T22:17:06.292Z,99002.28
2023-04-06T22:19:32.778Z,98991.31
2023-04-06T22:21:59.193Z,99023.91
2023-04-06T22:24:26.347Z,99005.03
2023-04-06T22:26:53.035Z,99036.41
2023-04-06T22:29:19.412Z,99059.19
2023-04-06T22:31:47.335Z,99125.88
2023-04-06T22:34:14.345Z,99186.84
2023-04-06T22:36:40.778Z,99203.97
2023-04-06T22:39:08.220Z,99228.03
2023-04-06T22:41:34.655Z,99256.59
2023-04-06T22:44:01.125Z,99270.72
2023-04-06T22:46:28.153Z,99308.00
2023-04-06T22:48:54.932Z,99307.38
2023-04-06T22:51:21.627Z,99340.84
2023-04-06T22:53:48.456Z,99367.66
2023-04-06T22:56:14.950Z,99364.03
2023-04-06T22:58:41.405Z,99403.88
2023-04-06T23:01:07.953Z,99399.19
2023-04-06T23:03:34.542Z,99386.22
2023-04-06T23:06:01.010Z,99402.34
2023-04-06T23:08:27.448Z,99432.56
2023-04-06T23:10:53.906Z,99462.22
2023-04-06T23:13:20.348Z,99472.00
2023-04-06T23:15:46.832Z,99472.38
2023-04-06T23:18:13.643Z,99466.69
2023-04-06T23:20:40.181Z,99491.72
2023-04-06T23:23:06.612Z,99524.59
2023-04-06T23:25:33.038Z,99536.94
2023-04-06T23:27:59.902Z,99529.16
2023-04-06T23:30:26.372Z,99550.06
2023-04-06T23:32:52.945Z,99589.22
2023-04-06T23:35:19.427Z,99598.09
2023-04-06T23:37:46.324Z,99570.69
2023-04-06T23:40:12.869Z,99537.66
2023-04-06T23:42:39.366Z,99524.91
2023-04-06T23:45:06.989Z,99548.03
2023-04-06T23:47:33.563Z,99530.75
2023-04-06T23:49:59.999Z,99568.13
2023-04-06T23:52:26.412Z,99590.19
2023-04-06T23:54:52.911Z,99601.34
2023-04-06T23:57:19.461Z,99637.13
2023-04-06T23:59:45.861Z,99639.19
